createdAt,value
2022-10-08T00:02:01.263Z,5.03
2022-10-08T00:04:48.313Z,5.33
2022-10-08T00:07:35.290Z,5.27
2022-10-08T00:10:22.217Z,5.80
2022-10-08T00:13:09.165Z,5.60
2022-10-08T00:15:58.119Z,6.23
2022-10-08T00:18:47.225Z,5.27
2022-10-08T00:21:37.997Z,5.13
2022-10-08T00:24:25.156Z,5.00
2022-10-08T00:27:12.649Z,4.80
2022-10-08T00:29:59.585Z,4.23
2022-10-08T00:32:46.773Z,4.57
2022-10-08T00:35:40.645Z,4.57
2022-10-08T00:38:27.603Z,4.40
2022-10-08T00:41:21.513Z,4.43
2022-10-08T00:44:45.882Z,3.97
2022-10-08T00:47:32.845Z,4.77
2022-10-08T00:50:25.251Z,7.73
2022-10-08T00:53:12.289Z,7.50
2022-10-08T00:55:59.234Z,7.43
2022-10-08T00:58:46.275Z,6.63
2022-10-08T01:01:34.101Z,7.20
2022-10-08T01:04:21.171Z,7.30
2022-10-08T01:07:35.575Z,8.17
2022-10-08T01:10:52.649Z,8.00
2022-10-08T01:14:00.401Z,8.57
2022-10-08T01:17:07.193Z,9.27
2022-10-08T01:20:29.419Z,9.20
2022-10-08T01:23:25.554Z,9.27
2022-10-08T01:26:15.683Z,8.73
2022-10-08T01:29:14.667Z,8.97
2022-10-08T01:32:13.842Z,8.80
2022-10-08T01:35:06.123Z,9.37
2022-10-08T01:37:56.161Z,9.20
2022-10-08T01:40:46.807Z,9.87
2022-10-08T01:43:38.322Z,9.57
2022-10-08T01:46:28.006Z,10.10
2022-10-08T01:49:22.690Z,10.20
2022-10-08T01:52:14.956Z,9.13
2022-10-08T01:55:05.766Z,9.93
2022-10-08T01:57:57.426Z,9.97
2022-10-08T02:00:47.632Z,9.70
2022-10-08T02:03:34.806Z,9.90
2022-10-08T02:06:21.795Z,10.07
2022-10-08T02:09:10.201Z,9.93
2022-10-08T02:11:57.583Z,10.23
2022-10-08T02:14:48.389Z,10.57
2022-10-08T02:17:47.421Z,8.97
2022-10-08T02:20:38.379Z,10.33
2022-10-08T02:24:09.342Z,9.40
2022-10-08T02:27:00.674Z,9.73
2022-10-08T02:30:08.955Z,9.83
2022-10-08T02:33:22.107Z,10.30
2022-10-08T02:36:13.001Z,10.63
2022-10-08T02:39:04.159Z,9.90
2022-10-08T02:41:54.880Z,9.37
2022-10-08T02:44:53.621Z,10.10
2022-10-08T02:47:45.140Z,9.33
2022-10-08T02:50:34.614Z,9.60
2022-10-08T02:53:24.537Z,10.23
2022-10-08T02:56:27.539Z,9.07
2022-10-08T02:59:20.181Z,9.53
2022-10-08T03:02:07.251Z,9.03
2022-10-08T03:05:01.563Z,9.43
2022-10-08T03:07:51.123Z,9.87
2022-10-08T03:10:40.857Z,9.67
2022-10-08T03:13:28.607Z,10.23
2022-10-08T03:16:20.752Z,9.30
2022-10-08T03:19:10.313Z,8.40
2022-10-08T03:21:57.343Z,8.83
2022-10-08T03:24:44.256Z,7.60
2022-10-08T03:27:31.269Z,8.03
2022-10-08T03:30:18.227Z,8.70
2022-10-08T03:33:05.166Z,8.43
2022-10-08T03:35:52.107Z,9.67
2022-10-08T03:38:39.035Z,8.57
2022-10-08T03:41:26.083Z,7.87
2022-10-08T03:44:13.057Z,8.17
2022-10-08T03:47:00.012Z,8.17
2022-10-08T03:49:47.006Z,7.83
2022-10-08T03:52:33.923Z,7.67
2022-10-08T03:55:20.918Z,8.00
2022-10-08T03:58:07.882Z,8.03
2022-10-08T04:01:03.467Z,7.80
2022-10-08T04:03:50.887Z,8.37
2022-10-08T04:06:37.802Z,7.33
2022-10-08T04:09:24.753Z,6.97
2022-10-08T04:12:11.751Z,7.17
2022-10-08T04:14:58.692Z,7.20
2022-10-08T04:17:45.667Z,6.83
2022-10-08T04:20:33.461Z,6.90
2022-10-08T04:23:20.385Z,7.20
2022-10-08T04:26:08.738Z,7.83
2022-10-08T04:28:55.737Z,7.87
2022-10-08T04:31:42.773Z,7.30
2022-10-08T04:34:29.905Z,7.10
2022-10-08T04:37:16.859Z,7.47
2022-10-08T04:40:04.074Z,7.00
2022-10-08T04:42:52.055Z,7.37
2022-10-08T04:45:45.795Z,6.90
2022-10-08T04:48:32.911Z,7.33
2022-10-08T04:51:21.039Z,6.70
2022-10-08T04:54:08.175Z,7.13
2022-10-08T04:56:55.158Z,6.57
2022-10-08T04:59:59.699Z,6.53
2022-10-08T05:02:49.433Z,7.23
2022-10-08T05:05:45.183Z,6.57
2022-10-08T05:08:32.705Z,6.60
2022-10-08T05:11:22.844Z,6.20
2022-10-08T05:14:10.125Z,5.80
2022-10-08T05:16:57.094Z,6.17
2022-10-08T05:19:44.085Z,6.37
2022-10-08T05:22:31.037Z,6.33
2022-10-08T05:25:18.031Z,5.93
2022-10-08T05:28:04.982Z,6.13
2022-10-08T05:30:52.012Z,6.27
2022-10-08T05:33:39.091Z,5.97
2022-10-08T05:36:28.919Z,5.57
2022-10-08T05:39:16.050Z,5.27
2022-10-08T05:42:03.016Z,6.43
2022-10-08T05:44:49.969Z,5.77
2022-10-08T05:47:36.940Z,6.10
2022-10-08T05:50:23.946Z,5.73
2022-10-08T05:53:10.885Z,5.97
2022-10-08T05:56:02.460Z,5.00
2022-10-08T05:58:50.063Z,5.37
2022-10-08T06:01:36.982Z,5.33
2022-10-08T06:04:24.303Z,5.60
2022-10-08T06:07:11.343Z,5.67
2022-10-08T06:09:58.355Z,5.37
2022-10-08T06:12:48.751Z,5.37
2022-10-08T06:15:35.957Z,5.33
2022-10-08T06:18:24.641Z,5.97
2022-10-08T06:21:14.602Z,5.30
2022-10-08T06:24:04.382Z,5.37
2022-10-08T06:26:51.355Z,5.03
2022-10-08T06:29:38.303Z,5.07
2022-10-08T06:32:25.243Z,6.47
2022-10-08T06:35:12.424Z,6.13
2022-10-08T06:37:59.575Z,6.43
2022-10-08T06:40:46.537Z,5.83
2022-10-08T06:43:33.814Z,6.60
2022-10-08T06:46:20.945Z,5.83
2022-10-08T06:49:10.046Z,6.50
2022-10-08T06:51:56.993Z,5.53
2022-10-08T06:54:44.002Z,6.60
2022-10-08T06:57:30.930Z,5.77
2022-10-08T07:00:18.603Z,5.80
2022-10-08T07:03:05.561Z,5.83
2022-10-08T07:05:52.487Z,6.13
2022-10-08T07:08:40.035Z,5.70
2022-10-08T07:11:27.842Z,6.20
2022-10-08T07:14:14.959Z,6.07
2022-10-08T07:17:01.952Z,6.03
2022-10-08T07:19:48.881Z,5.97
2022-10-08T07:22:35.864Z,5.73
2022-10-08T07:25:22.803Z,6.43
2022-10-08T07:28:09.772Z,7.00
2022-10-08T07:30:56.784Z,6.73
2022-10-08T07:33:43.831Z,6.03
2022-10-08T07:36:31.070Z,6.13
2022-10-08T07:39:21.913Z,6.40
2022-10-08T07:42:08.864Z,6.50
2022-10-08T07:44:55.836Z,7.27
2022-10-08T07:47:42.763Z,6.20
2022-10-08T07:50:29.786Z,7.70
2022-10-08T07:53:17.084Z,7.63
2022-10-08T07:56:05.103Z,7.40
2022-10-08T07:58:52.074Z,8.07
2022-10-08T08:01:40.833Z,8.70
2022-10-08T08:04:27.879Z,8.13
2022-10-08T08:07:14.814Z,8.53
2022-10-08T08:10:01.775Z,9.33
2022-10-08T08:12:49.339Z,8.70
2022-10-08T08:15:36.586Z,9.00
2022-10-08T08:18:24.359Z,11.27
2022-10-08T08:21:14.388Z,31.67
2022-10-08T08:24:12.366Z,79.53
2022-10-08T08:26:59.427Z,59.83
2022-10-08T08:29:46.437Z,30.63
2022-10-08T08:32:33.735Z,16.27
2022-10-08T08:35:20.657Z,12.30
2022-10-08T08:38:07.608Z,11.13
2022-10-08T08:40:57.339Z,10.73
2022-10-08T08:43:44.820Z,10.40
2022-10-08T08:46:36.375Z,11.17
2022-10-08T08:49:28.565Z,10.90
2022-10-08T08:52:19.446Z,9.97
2022-10-08T08:55:15.374Z,9.10
2022-10-08T08:58:28.483Z,9.90
2022-10-08T09:01:30.737Z,9.63
2022-10-08T09:04:27.505Z,9.13
2022-10-08T09:07:22.811Z,10.23
2022-10-08T09:10:16.782Z,10.23
2022-10-08T09:13:04.177Z,9.03
2022-10-08T09:15:52.981Z,8.80
2022-10-08T09:18:51.331Z,9.23
2022-10-08T09:21:38.287Z,9.10
2022-10-08T09:24:25.941Z,9.33
2022-10-08T09:27:16.104Z,9.57
2022-10-08T09:30:03.207Z,9.80
2022-10-08T09:33:13.429Z,9.50
2022-10-08T09:36:00.398Z,9.50
2022-10-08T09:38:47.404Z,9.87
2022-10-08T09:41:34.437Z,9.87
2022-10-08T09:44:23.262Z,9.50
2022-10-08T09:47:13.158Z,10.03
2022-10-08T09:50:05.147Z,9.73
2022-10-08T09:52:55.458Z,9.53
2022-10-08T09:55:55.981Z,9.33
2022-10-08T09:58:52.786Z,8.73
2022-10-08T10:01:45.962Z,9.23
2022-10-08T10:04:38.907Z,9.17
2022-10-08T10:07:38.706Z,9.40
2022-10-08T10:10:39.099Z,9.73
2022-10-08T10:13:40.735Z,9.73
2022-10-08T10:16:39.096Z,8.33
2022-10-08T10:19:36.668Z,9.63
2022-10-08T10:22:38.002Z,9.90
2022-10-08T10:25:27.782Z,8.57
2022-10-08T10:28:22.960Z,9.47
2022-10-08T10:31:12.103Z,8.57
2022-10-08T10:34:17.881Z,9.73
2022-10-08T10:37:16.057Z,10.43
2022-10-08T10:40:24.741Z,9.77
2022-10-08T10:43:37.188Z,9.40
2022-10-08T10:46:27.045Z,8.97
2022-10-08T10:49:17.785Z,9.83
2022-10-08T10:52:20.869Z,12.37
2022-10-08T10:55:08.275Z,8.50
2022-10-08T10:58:26.791Z,9.43
2022-10-08T11:01:37.864Z,8.97
2022-10-08T11:04:36.802Z,8.83
2022-10-08T11:07:37.492Z,7.67
2022-10-08T11:10:39.711Z,8.17
2022-10-08T11:13:58.756Z,7.50
2022-10-08T11:16:54.755Z,7.77
2022-10-08T11:19:55.480Z,8.33
2022-10-08T11:22:56.876Z,7.83
2022-10-08T11:26:23.228Z,6.67
2022-10-08T11:29:36.685Z,7.60
2022-10-08T11:32:24.748Z,9.97
2022-10-08T11:35:11.621Z,7.70
2022-10-08T11:38:11.016Z,7.90
2022-10-08T11:41:12.816Z,7.50
2022-10-08T11:44:02.365Z,8.60
2022-10-08T11:46:49.590Z,6.17
2022-10-08T11:49:36.443Z,6.40
2022-10-08T11:52:29.094Z,6.63
2022-10-08T11:55:33.390Z,5.67
2022-10-08T11:58:30.429Z,8.63
2022-10-08T12:01:17.380Z,6.37
2022-10-08T12:04:22.741Z,6.30
2022-10-08T12:07:15.360Z,7.73
2022-10-08T12:10:33.579Z,7.87
2022-10-08T12:13:26.882Z,6.90
2022-10-08T12:16:13.927Z,7.40
2022-10-08T12:19:00.972Z,7.40
2022-10-08T12:21:49.554Z,7.77
2022-10-08T12:24:37.468Z,9.27
2022-10-08T12:27:33.447Z,8.27
2022-10-08T12:30:20.381Z,6.67
2022-10-08T12:33:09.262Z,6.90
2022-10-08T12:36:14.335Z,6.07
2022-10-08T12:39:13.870Z,7.07
2022-10-08T12:42:15.622Z,5.77
2022-10-08T12:45:22.991Z,6.93
2022-10-08T12:48:42.308Z,6.50
2022-10-08T12:51:52.211Z,6.00
2022-10-08T12:54:45.961Z,5.43
2022-10-08T12:57:37.790Z,5.80
2022-10-08T13:00:30.670Z,5.73
2022-10-08T13:03:19.094Z,6.03
2022-10-08T13:06:35.532Z,6.07
2022-10-08T13:09:32.951Z,7.07
2022-10-08T13:12:19.962Z,9.57
2022-10-08T13:15:08.979Z,7.97
2022-10-08T13:17:56.071Z,5.50
2022-10-08T13:20:59.867Z,5.70
2022-10-08T13:23:46.973Z,6.10
2022-10-08T13:26:49.674Z,5.80
2022-10-08T13:29:37.443Z,6.47
2022-10-08T13:32:28.655Z,5.53
2022-10-08T13:35:24.823Z,6.00
2022-10-08T13:38:20.820Z,6.23
2022-10-08T13:41:09.285Z,6.27
2022-10-08T13:43:56.226Z,8.63
2022-10-08T13:46:43.200Z,7.03
2022-10-08T13:49:30.300Z,6.43
2022-10-08T13:52:21.276Z,6.23
2022-10-08T13:55:28.785Z,7.13
2022-10-08T13:58:18.042Z,6.13
2022-10-08T14:01:05.012Z,5.50
2022-10-08T14:03:52.011Z,5.50
2022-10-08T14:06:40.865Z,5.90
2022-10-08T14:09:30.265Z,6.70
2022-10-08T14:12:22.533Z,5.53
2022-10-08T14:15:12.650Z,5.60
2022-10-08T14:17:59.564Z,4.60
2022-10-08T14:20:49.997Z,3.60
2022-10-08T14:23:36.932Z,3.73
2022-10-08T14:26:23.881Z,6.33
2022-10-08T14:29:10.880Z,5.13
2022-10-08T14:31:58.134Z,5.00
2022-10-08T14:34:45.141Z,2.97
2022-10-08T14:37:35.726Z,2.70
2022-10-08T14:40:22.872Z,3.97
2022-10-08T14:43:09.839Z,3.57
2022-10-08T14:45:56.958Z,3.70
2022-10-08T14:48:44.137Z,2.60
2022-10-08T14:51:38.177Z,3.90
2022-10-08T14:54:25.853Z,4.10
2022-10-08T14:57:12.847Z,3.93
2022-10-08T14:59:59.946Z,2.20
2022-10-08T15:02:47.115Z,2.63
2022-10-08T15:05:34.519Z,2.73
2022-10-08T15:08:21.434Z,3.87
2022-10-08T15:11:08.501Z,3.40
2022-10-08T15:13:55.614Z,2.73
2022-10-08T15:16:43.058Z,7.00
2022-10-08T15:19:30.182Z,2.30
2022-10-08T15:22:17.132Z,4.27
2022-10-08T15:25:04.550Z,2.77
2022-10-08T15:27:51.497Z,2.17
2022-10-08T15:30:40.857Z,2.63
2022-10-08T15:33:27.914Z,3.07
2022-10-08T15:36:30.069Z,2.23
2022-10-08T15:39:18.774Z,2.83
2022-10-08T15:42:06.070Z,1.70
2022-10-08T15:44:53.663Z,1.90
2022-10-08T15:47:40.576Z,2.27
2022-10-08T15:50:28.464Z,2.73
2022-10-08T15:53:15.394Z,1.40
2022-10-08T15:56:03.331Z,1.67
2022-10-08T15:58:51.473Z,2.67
2022-10-08T16:01:38.883Z,1.97
2022-10-08T16:04:26.253Z,2.40
2022-10-08T16:07:13.268Z,2.90
2022-10-08T16:10:00.293Z,2.37
2022-10-08T16:12:47.436Z,2.93
2022-10-08T16:15:37.735Z,2.37
2022-10-08T16:18:24.663Z,4.13
2022-10-08T16:21:12.534Z,2.70
2022-10-08T16:24:00.731Z,1.97
2022-10-08T16:26:48.777Z,3.90
2022-10-08T16:29:35.753Z,1.50
2022-10-08T16:32:22.761Z,3.43
2022-10-08T16:35:09.754Z,2.17
2022-10-08T16:37:56.702Z,2.07
2022-10-08T16:40:43.734Z,1.73
2022-10-08T16:43:30.673Z,1.40
2022-10-08T16:46:22.126Z,2.00
2022-10-08T16:49:11.780Z,1.33
2022-10-08T16:52:02.298Z,2.97
2022-10-08T16:54:54.527Z,1.90
2022-10-08T16:57:41.751Z,2.40
2022-10-08T17:00:29.060Z,1.67
2022-10-08T17:03:15.983Z,2.20
2022-10-08T17:06:03.757Z,1.20
2022-10-08T17:08:51.812Z,3.30
2022-10-08T17:11:38.972Z,2.33
2022-10-08T17:14:26.053Z,2.07
2022-10-08T17:17:13.111Z,1.57
2022-10-08T17:20:00.128Z,1.50
2022-10-08T17:22:47.219Z,3.27
2022-10-08T17:25:34.299Z,2.73
2022-10-08T17:28:21.831Z,1.63
2022-10-08T17:31:11.971Z,5.70
2022-10-08T17:34:00.017Z,2.20
2022-10-08T17:36:47.753Z,4.10
2022-10-08T17:39:34.673Z,3.93
2022-10-08T17:42:21.606Z,2.57
2022-10-08T17:45:08.885Z,3.50
2022-10-08T17:47:55.803Z,2.07
2022-10-08T17:50:42.770Z,4.90
2022-10-08T17:53:30.098Z,1.73
2022-10-08T17:56:17.023Z,1.60
2022-10-08T17:59:04.493Z,4.23
2022-10-08T18:01:51.739Z,1.30
2022-10-08T18:04:38.867Z,1.40
2022-10-08T18:07:25.770Z,1.33
2022-10-08T18:10:12.823Z,2.90
2022-10-08T18:13:02.050Z,1.87
2022-10-08T18:15:48.998Z,2.33
2022-10-08T18:18:36.602Z,2.17
2022-10-08T18:21:23.690Z,2.93
2022-10-08T18:24:11.095Z,2.50
2022-10-08T18:26:59.378Z,2.27
2022-10-08T18:29:46.293Z,2.07
2022-10-08T18:32:33.235Z,3.60
2022-10-08T18:35:20.153Z,1.80
2022-10-08T18:38:07.129Z,1.87
2022-10-08T18:40:54.065Z,1.87
2022-10-08T18:43:41.338Z,1.70
2022-10-08T18:46:28.760Z,2.67
2022-10-08T18:49:18.499Z,1.87
2022-10-08T18:52:05.471Z,1.47
2022-10-08T18:54:52.781Z,3.03
2022-10-08T18:57:39.838Z,3.40
2022-10-08T19:00:26.759Z,4.53
2022-10-08T19:03:13.697Z,3.47
2022-10-08T19:06:00.586Z,4.07
2022-10-08T19:08:48.605Z,2.47
2022-10-08T19:11:43.389Z,3.03
2022-10-08T19:14:32.126Z,3.13
2022-10-08T19:17:19.115Z,3.17
2022-10-08T19:20:06.507Z,3.97
2022-10-08T19:22:53.540Z,2.57
2022-10-08T19:25:40.446Z,2.43
2022-10-08T19:28:27.400Z,2.83
2022-10-08T19:31:14.335Z,3.33
2022-10-08T19:34:04.438Z,2.20
2022-10-08T19:36:51.639Z,4.60
2022-10-08T19:39:43.757Z,2.40
2022-10-08T19:42:31.300Z,2.43
2022-10-08T19:45:18.276Z,1.77
2022-10-08T19:48:05.246Z,3.43
2022-10-08T19:50:52.167Z,1.97
2022-10-08T19:53:39.225Z,3.87
2022-10-08T19:56:26.802Z,2.23
2022-10-08T19:59:13.819Z,5.47
2022-10-08T20:02:00.811Z,1.87
2022-10-08T20:04:47.847Z,1.63
2022-10-08T20:07:34.784Z,2.60
2022-10-08T20:10:21.710Z,2.13
2022-10-08T20:13:08.678Z,2.27
2022-10-08T20:15:55.768Z,1.50
2022-10-08T20:18:51.085Z,2.80
2022-10-08T20:21:38.066Z,2.30
2022-10-08T20:24:25.031Z,2.77
2022-10-08T20:27:12.020Z,1.73
2022-10-08T20:29:58.935Z,1.40
2022-10-08T20:32:46.284Z,1.27
2022-10-08T20:35:36.914Z,2.87
2022-10-08T20:38:23.837Z,3.03
2022-10-08T20:41:10.957Z,2.87
2022-10-08T20:44:02.935Z,2.63
2022-10-08T20:46:51.186Z,1.67
2022-10-08T20:49:38.173Z,2.67
2022-10-08T20:52:25.090Z,2.07
2022-10-08T20:55:12.075Z,2.07
2022-10-08T20:57:59.031Z,1.70
2022-10-08T21:00:46.146Z,1.67
2022-10-08T21:03:33.636Z,1.87
2022-10-08T21:06:35.022Z,2.03
2022-10-08T21:09:22.321Z,3.10
2022-10-08T21:12:09.238Z,2.20
2022-10-08T21:14:56.170Z,3.47
2022-10-08T21:17:43.091Z,1.90
2022-10-08T21:20:30.117Z,1.93
2022-10-08T21:23:17.177Z,2.00
2022-10-08T21:26:14.029Z,3.60
2022-10-08T21:29:02.961Z,4.17
2022-10-08T21:31:50.028Z,3.63
2022-10-08T21:34:37.044Z,2.30
2022-10-08T21:37:24.021Z,2.20
2022-10-08T21:40:11.025Z,1.97
2022-10-08T21:42:58.061Z,2.60
2022-10-08T21:46:01.823Z,2.40
2022-10-08T21:48:54.366Z,2.60
2022-10-08T21:51:41.942Z,2.40
2022-10-08T21:54:28.890Z,7.67
2022-10-08T21:57:16.567Z,2.67
2022-10-08T22:00:07.645Z,2.00
2022-10-08T22:02:59.934Z,2.07
2022-10-08T22:06:05.226Z,2.47
2022-10-08T22:08:53.067Z,2.57
2022-10-08T22:11:40.297Z,1.80
2022-10-08T22:14:27.412Z,1.77
2022-10-08T22:17:14.418Z,1.37
2022-10-08T22:20:01.446Z,1.70
2022-10-08T22:22:48.541Z,4.30
2022-10-08T22:25:35.605Z,1.70
2022-10-08T22:28:23.019Z,1.50
2022-10-08T22:31:12.023Z,1.73
2022-10-08T22:33:59.201Z,1.43
2022-10-08T22:36:46.265Z,1.77
2022-10-08T22:39:33.231Z,1.73
2022-10-08T22:42:20.179Z,2.57
2022-10-08T22:45:07.839Z,2.50
2022-10-08T22:47:54.798Z,1.60
2022-10-08T22:50:41.705Z,2.07
2022-10-08T22:53:29.369Z,2.90
2022-10-08T22:56:21.741Z,1.50
2022-10-08T22:59:09.694Z,1.40
2022-10-08T23:01:56.681Z,1.80
2022-10-08T23:04:43.694Z,2.77
2022-10-08T23:07:30.655Z,1.67
2022-10-08T23:10:17.585Z,1.20
2022-10-08T23:13:04.574Z,0.97
2022-10-08T23:16:04.489Z,1.40
2022-10-08T23:19:00.173Z,1.33
2022-10-08T23:21:47.111Z,2.40
2022-10-08T23:24:34.617Z,1.40
2022-10-08T23:27:21.571Z,1.33
2022-10-08T23:30:25.544Z,1.37
2022-10-08T23:33:16.167Z,0.80
2022-10-08T23:36:04.362Z,1.10
2022-10-08T23:38:51.980Z,1.20
2022-10-08T23:41:38.966Z,1.30
2022-10-08T23:44:25.943Z,1.50
2022-10-08T23:47:12.886Z,1.20
2022-10-08T23:49:59.864Z,1.37
2022-10-08T23:52:47.340Z,2.37
2022-10-08T23:55:34.521Z,1.90
2022-10-08T23:58:21.478Z,0.60
